Time;durP1;ratioP1;P1;durP2;ratioP2;P2;SDS_P1;SDS_P2;PMS_P1;PMS_P2;Temp;Humidity;BMP_temperature;BMP_pressure;BME280_temperature;BME280_humidity;BME280_pressure;Samples;Min_cycle;Max_cycle;Signal;HPM_P1;HPM_P2
2022/10/10 00:01:16;;;;;;;;;;;10.40;99.90;;;;;;5014946;28;20024;-66
2022/10/10 00:03:43;;;;;;;;;;;10.30;99.90;;;;;;5012103;28;19932;-69
2022/10/10 00:06:10;;;;;;;;;;;10.30;99.90;;;;;;5009785;28;20028;-68
2022/10/10 00:08:37;;;;;;;;;;;10.30;99.90;;;;;;5010726;28;19974;-66
2022/10/10 00:11:04;;;;;;;;;;;10.30;99.90;;;;;;5012417;28;20489;-67
2022/10/10 00:13:31;;;;;;;;;;;10.30;99.90;;;;;;5011596;28;19925;-68
2022/10/10 00:15:58;;;;;;;;;;;10.30;99.90;;;;;;5012929;28;19929;-66
2022/10/10 00:18:25;;;;;;;;;;;10.30;99.90;;;;;;5013866;28;19925;-70
2022/10/10 00:20:52;;;;;;;;;;;10.40;99.90;;;;;;5012981;28;20294;-68
2022/10/10 00:23:19;;;;;;;;;;;10.40;99.90;;;;;;5007794;28;19925;-69
2022/10/10 00:25:46;;;;;;;;;;;10.40;99.90;;;;;;5012861;28;19979;-66
2022/10/10 00:28:14;;;;;;;;;;;10.40;99.90;;;;;;5012759;28;19966;-68
2022/10/10 00:30:41;;;;;;;;;;;10.30;99.90;;;;;;5008575;28;20052;-66
2022/10/10 00:33:08;;;;;;;;;;;10.40;99.90;;;;;;5011995;28;19936;-67
2022/10/10 00:35:35;;;;;;;;;;;10.40;99.90;;;;;;5011867;28;19943;-67
2022/10/10 00:38:02;;;;;;;;;;;10.40;99.90;;;;;;5013602;28;19932;-66
2022/10/10 00:40:29;;;;;;;;;;;10.40;99.90;;;;;;5011042;28;19925;-69
2022/10/10 00:42:56;;;;;;;;;;;10.30;99.90;;;;;;5013974;28;19978;-68
2022/10/10 00:45:35;;;;;;;;;;;10.30;99.90;;;;;;5007282;28;19930;-67
2022/10/10 00:48:16;;;;;;;;;;;10.20;99.90;;;;;;5008541;28;19926;-66
2022/10/10 00:50:47;;;;;;;;;;;10.10;99.90;;;;;;5010651;28;20021;-68
2022/10/10 00:53:16;;;;;;;;;;;10.10;99.90;;;;;;5007655;28;20028;-66
2022/10/10 00:55:43;;;;;;;;;;;10.00;99.90;;;;;;5011686;28;20040;-69
2022/10/10 00:58:11;;;;;;;;;;;9.90;99.90;;;;;;5020071;28;20137;-68
2022/10/10 01:00:38;;;;;;;;;;;9.80;99.90;;;;;;5012548;28;20008;-66
2022/10/10 01:03:05;;;;;;;;;;;9.60;99.90;;;;;;5012503;28;20376;-68
2022/10/10 01:05:32;;;;;;;;;;;9.50;99.90;;;;;;5008996;28;19972;-67
2022/10/10 01:07:59;;;;;;;;;;;9.40;99.90;;;;;;5011762;28;19940;-67
2022/10/10 01:10:27;;;;;;;;;;;9.20;99.90;;;;;;5010672;28;20338;-69
2022/10/10 01:13:12;;;;;;;;;;;9.10;99.90;;;;;;5014572;28;19997;-66
2022/10/10 01:15:47;;;;;;;;;;;9.00;99.90;;;;;;5012644;28;20082;-67
2022/10/10 01:18:37;;;;;;;;;;;8.90;99.90;;;;;;5017973;28;19929;-66
2022/10/10 01:21:22;;;;;;;;;;;8.80;99.90;;;;;;5013419;28;19951;-67
2022/10/10 01:23:55;;;;;;;;;;;8.70;99.90;;;;;;5009897;28;19925;-68
2022/10/10 01:26:27;;;;;;;;;;;8.60;99.90;;;;;;5014932;28;20028;-66
2022/10/10 01:29:08;;;;;;;;;;;8.60;99.90;;;;;;5020126;28;19943;-67
2022/10/10 01:31:38;;;;;;;;;;;8.50;99.90;;;;;;5032127;28;19925;-67
2022/10/10 01:34:14;;;;;;;;;;;8.40;99.90;;;;;;5017792;28;19964;-67
2022/10/10 01:36:49;;;;;;;;;;;8.30;99.90;;;;;;5015647;28;19925;-70
2022/10/10 01:39:26;;;;;;;;;;;8.30;99.90;;;;;;5021194;28;20029;-66
2022/10/10 01:41:59;;;;;;;;;;;8.30;99.90;;;;;;5014546;28;20303;-68
2022/10/10 01:44:26;;;;;;;;;;;8.20;99.90;;;;;;5020117;28;19984;-66
2022/10/10 01:46:53;;;;;;;;;;;8.10;99.90;;;;;;5017244;28;19926;-68
2022/10/10 01:49:23;;;;;;;;;;;8.10;99.90;;;;;;5015251;28;20028;-71
2022/10/10 01:52:09;;;;;;;;;;;8.00;99.90;;;;;;5017049;28;20045;-69
2022/10/10 01:54:41;;;;;;;;;;;8.00;99.90;;;;;;5019220;28;20023;-69
2022/10/10 01:57:08;;;;;;;;;;;8.00;99.90;;;;;;5021065;28;19925;-67
2022/10/10 01:59:35;;;;;;;;;;;8.00;99.90;;;;;;5015605;28;19925;-66
2022/10/10 02:02:18;;;;;;;;;;;7.90;99.90;;;;;;5016640;28;20243;-66
2022/10/10 02:04:56;;;;;;;;;;;7.90;99.90;;;;;;5017152;28;20007;-66
2022/10/10 02:07:44;;;;;;;;;;;7.90;99.90;;;;;;5011694;28;19936;-67
2022/10/10 02:10:12;;;;;;;;;;;7.90;99.90;;;;;;5014276;28;20008;-67
2022/10/10 02:12:39;;;;;;;;;;;7.80;99.90;;;;;;5014309;28;19930;-66
2022/10/10 02:15:11;;;;;;;;;;;7.80;99.90;;;;;;5013786;28;19929;-67
2022/10/10 02:17:39;;;;;;;;;;;7.80;99.90;;;;;;5013553;28;20253;-67
2022/10/10 02:20:07;;;;;;;;;;;7.80;99.90;;;;;;5011092;28;19931;-67
2022/10/10 02:22:35;;;;;;;;;;;7.80;99.90;;;;;;5013098;28;19984;-67
2022/10/10 02:25:02;;;;;;;;;;;7.80;99.90;;;;;;5015678;28;20399;-69
2022/10/10 02:27:38;;;;;;;;;;;7.70;99.90;;;;;;5009337;28;19932;-71
2022/10/10 02:30:05;;;;;;;;;;;7.70;99.90;;;;;;5019396;28;19925;-67
2022/10/10 02:32:43;;;;;;;;;;;7.60;99.90;;;;;;5015151;28;20276;-66
2022/10/10 02:35:22;;;;;;;;;;;7.60;99.90;;;;;;5016456;28;20139;-66
2022/10/10 02:37:50;;;;;;;;;;;7.60;99.90;;;;;;5014814;28;20020;-68
2022/10/10 02:40:19;;;;;;;;;;;7.60;99.90;;;;;;5012777;28;19926;-68
2022/10/10 02:42:47;;;;;;;;;;;7.60;99.90;;;;;;5018142;28;19935;-67
2022/10/10 02:45:15;;;;;;;;;;;7.60;99.90;;;;;;5013059;28;19986;-68
2022/10/10 02:47:43;;;;;;;;;;;7.50;99.90;;;;;;5010738;28;19933;-68
2022/10/10 02:50:09;;;;;;;;;;;7.50;99.90;;;;;;5017339;28;19936;-66
2022/10/10 02:52:36;;;;;;;;;;;7.50;99.90;;;;;;5014823;28;20633;-66
2022/10/10 02:55:03;;;;;;;;;;;7.50;99.90;;;;;;5015301;28;19925;-67
2022/10/10 02:57:30;;;;;;;;;;;7.40;99.90;;;;;;5010305;28;20015;-67
2022/10/10 02:59:57;;;;;;;;;;;7.40;99.90;;;;;;5012585;28;20064;-66
2022/10/10 03:02:23;;;;;;;;;;;7.40;99.90;;;;;;5013068;28;20020;-67
2022/10/10 03:04:50;;;;;;;;;;;7.50;99.90;;;;;;5019531;28;19932;-68
2022/10/10 03:07:17;;;;;;;;;;;7.50;99.90;;;;;;5016103;28;19928;-67
2022/10/10 03:09:44;;;;;;;;;;;7.50;99.90;;;;;;5008254;28;20020;-66
2022/10/10 03:12:10;;;;;;;;;;;7.50;99.90;;;;;;5017692;28;19925;-69
2022/10/10 03:14:37;;;;;;;;;;;7.50;99.90;;;;;;5017326;28;20015;-67
2022/10/10 03:17:04;;;;;;;;;;;7.50;99.90;;;;;;5015780;28;19955;-68
2022/10/10 03:19:31;;;;;;;;;;;7.40;99.90;;;;;;5021523;28;20283;-67
2022/10/10 03:21:58;;;;;;;;;;;7.40;99.90;;;;;;5014511;28;20012;-67
2022/10/10 03:24:25;;;;;;;;;;;7.40;99.90;;;;;;5016254;28;19929;-68
2022/10/10 03:26:51;;;;;;;;;;;7.30;99.90;;;;;;5013147;28;19964;-67
2022/10/10 03:29:18;;;;;;;;;;;7.30;99.90;;;;;;5015725;28;19929;-67
2022/10/10 03:31:45;;;;;;;;;;;7.30;99.90;;;;;;5011146;28;19941;-66
2022/10/10 03:34:12;;;;;;;;;;;7.30;99.90;;;;;;5012481;28;20020;-67
2022/10/10 03:36:38;;;;;;;;;;;7.30;99.90;;;;;;5010932;28;19936;-70
2022/10/10 03:39:06;;;;;;;;;;;7.30;99.90;;;;;;5013588;28;20239;-68
2022/10/10 03:41:33;;;;;;;;;;;7.20;99.90;;;;;;5006244;28;19930;-67
2022/10/10 03:44:00;;;;;;;;;;;7.30;99.90;;;;;;5014094;28;19928;-68
2022/10/10 03:46:27;;;;;;;;;;;7.20;99.90;;;;;;4995829;28;19929;-66
2022/10/10 03:48:54;;;;;;;;;;;7.20;99.90;;;;;;5018251;28;19929;-69
2022/10/10 03:51:21;;;;;;;;;;;7.20;99.90;;;;;;5017413;28;19947;-69
2022/10/10 03:53:47;;;;;;;;;;;7.20;99.90;;;;;;5013928;28;20038;-67
2022/10/10 03:56:14;;;;;;;;;;;7.20;99.90;;;;;;5014223;28;19929;-67
2022/10/10 03:58:41;;;;;;;;;;;7.30;99.90;;;;;;5014565;28;19936;-68
2022/10/10 04:01:08;;;;;;;;;;;7.30;99.90;;;;;;5011879;28;19925;-66
2022/10/10 04:03:35;;;;;;;;;;;7.30;99.90;;;;;;5008251;28;19929;-66
2022/10/10 04:06:01;;;;;;;;;;;7.40;99.90;;;;;;5011133;28;20004;-67
2022/10/10 04:08:29;;;;;;;;;;;7.40;99.90;;;;;;5012963;28;19931;-67
2022/10/10 04:10:56;;;;;;;;;;;7.40;99.90;;;;;;5013381;28;20282;-68
2022/10/10 04:13:24;;;;;;;;;;;7.40;99.90;;;;;;5013561;28;20666;-69
2022/10/10 04:15:52;;;;;;;;;;;7.40;99.90;;;;;;5011057;28;19932;-67
2022/10/10 04:18:19;;;;;;;;;;;7.50;99.90;;;;;;5009646;28;19930;-68
2022/10/10 04:20:45;;;;;;;;;;;7.50;99.90;;;;;;5010005;28;20302;-70
2022/10/10 04:23:12;;;;;;;;;;;7.60;99.90;;;;;;5010010;28;20427;-67
2022/10/10 04:25:40;;;;;;;;;;;7.60;99.90;;;;;;5010628;28;19926;-67
2022/10/10 04:28:09;;;;;;;;;;;7.60;99.90;;;;;;5020804;28;20596;-71
2022/10/10 04:30:36;;;;;;;;;;;7.60;99.90;;;;;;5008256;28;19930;-67
2022/10/10 04:33:03;;;;;;;;;;;7.70;99.90;;;;;;5010784;28;19925;-69
2022/10/10 04:35:30;;;;;;;;;;;7.70;99.90;;;;;;5010103;28;20008;-69
2022/10/10 04:37:56;;;;;;;;;;;7.70;99.90;;;;;;5013747;28;19929;-66
2022/10/10 04:40:23;;;;;;;;;;;7.70;99.90;;;;;;5012020;28;19936;-67
2022/10/10 04:42:53;;;;;;;;;;;7.70;99.90;;;;;;5012303;28;19925;-70
2022/10/10 04:45:20;;;;;;;;;;;7.80;99.90;;;;;;5009496;28;20097;-70
2022/10/10 04:47:47;;;;;;;;;;;7.80;99.90;;;;;;5010305;28;19965;-68
2022/10/10 04:50:14;;;;;;;;;;;7.80;99.90;;;;;;5015860;28;19929;-72
2022/10/10 04:52:40;;;;;;;;;;;7.80;99.90;;;;;;5019184;28;19971;-67
2022/10/10 04:55:07;;;;;;;;;;;7.80;99.90;;;;;;5019778;28;20302;-67
2022/10/10 04:57:34;;;;;;;;;;;7.80;99.90;;;;;;5015808;28;20290;-72
2022/10/10 05:00:01;;;;;;;;;;;7.80;99.90;;;;;;5012072;28;20505;-66
2022/10/10 05:02:28;;;;;;;;;;;7.70;99.90;;;;;;5014437;28;19931;-69
2022/10/10 05:04:55;;;;;;;;;;;7.70;99.90;;;;;;5030021;28;19944;-68
2022/10/10 05:07:22;;;;;;;;;;;7.70;99.90;;;;;;5013198;28;20388;-67
2022/10/10 05:09:49;;;;;;;;;;;7.70;99.90;;;;;;5009489;28;20525;-66
2022/10/10 05:12:16;;;;;;;;;;;7.70;99.90;;;;;;5021053;28;20370;-72
2022/10/10 05:14:43;;;;;;;;;;;7.70;99.90;;;;;;5019580;28;19925;-68
2022/10/10 05:17:14;;;;;;;;;;;7.70;99.90;;;;;;5018149;28;19926;-68
2022/10/10 05:19:41;;;;;;;;;;;7.70;99.90;;;;;;5020088;28;19925;-67
2022/10/10 05:22:08;;;;;;;;;;;7.80;99.90;;;;;;5016575;28;20308;-68
2022/10/10 05:24:35;;;;;;;;;;;7.80;99.90;;;;;;5016043;28;19933;-66
2022/10/10 05:27:01;;;;;;;;;;;7.80;99.90;;;;;;5016504;28;19925;-68
2022/10/10 05:29:28;;;;;;;;;;;7.80;99.90;;;;;;5015177;28;19930;-66
2022/10/10 05:31:55;;;;;;;;;;;7.70;99.90;;;;;;5014913;28;19925;-66
2022/10/10 05:34:22;;;;;;;;;;;7.70;99.90;;;;;;5019619;28;20332;-71
2022/10/10 05:36:49;;;;;;;;;;;7.70;99.90;;;;;;5016665;28;20774;-67
2022/10/10 05:39:15;;;;;;;;;;;7.70;99.90;;;;;;5010872;28;19933;-66
2022/10/10 05:41:42;;;;;;;;;;;7.60;99.90;;;;;;5012763;28;19926;-68
2022/10/10 05:44:09;;;;;;;;;;;7.60;99.90;;;;;;5014458;28;19939;-65
2022/10/10 05:46:36;;;;;;;;;;;7.60;99.90;;;;;;5019980;28;20042;-66
2022/10/10 05:49:03;;;;;;;;;;;7.60;99.90;;;;;;5018052;28;19925;-72
2022/10/10 05:51:29;;;;;;;;;;;7.60;99.90;;;;;;5013838;28;19940;-67
2022/10/10 05:53:56;;;;;;;;;;;7.60;99.90;;;;;;5017812;28;19933;-67
2022/10/10 05:56:23;;;;;;;;;;;7.60;99.90;;;;;;5022486;28;20543;-72
2022/10/10 05:58:50;;;;;;;;;;;7.60;99.90;;;;;;5013062;28;20563;-68
2022/10/10 06:01:17;;;;;;;;;;;7.60;99.90;;;;;;5014165;28;19925;-67
2022/10/10 06:03:44;;;;;;;;;;;7.60;99.90;;;;;;5014871;28;19926;-69
2022/10/10 06:06:10;;;;;;;;;;;7.60;99.90;;;;;;5022199;28;19936;-66
2022/10/10 06:08:37;;;;;;;;;;;7.60;99.90;;;;;;5011848;28;19960;-66
2022/10/10 06:11:06;;;;;;;;;;;7.70;99.90;;;;;;5015214;28;19947;-67
2022/10/10 06:13:33;;;;;;;;;;;7.70;99.90;;;;;;5014827;28;19936;-67
2022/10/10 06:16:00;;;;;;;;;;;7.80;99.90;;;;;;5013829;28;19925;-66
2022/10/10 06:18:27;;;;;;;;;;;7.80;99.90;;;;;;5014992;28;19925;-71
2022/10/10 06:20:54;;;;;;;;;;;7.80;99.90;;;;;;5012841;28;19925;-67
2022/10/10 06:23:21;;;;;;;;;;;7.80;99.90;;;;;;5010878;28;20052;-68
2022/10/10 06:25:50;;;;;;;;;;;7.90;99.90;;;;;;5016843;28;19925;-67
2022/10/10 06:28:17;;;;;;;;;;;7.90;99.90;;;;;;5012006;28;20012;-67
2022/10/10 06:30:44;;;;;;;;;;;7.90;99.90;;;;;;5012516;28;19926;-67
2022/10/10 06:33:11;;;;;;;;;;;8.00;99.90;;;;;;5013435;28;19979;-66
2022/10/10 06:35:41;;;;;;;;;;;8.10;99.90;;;;;;5013788;28;20041;-66
2022/10/10 06:38:08;;;;;;;;;;;8.10;99.90;;;;;;5013217;28;20092;-66
2022/10/10 06:40:35;;;;;;;;;;;8.10;99.90;;;;;;5013679;28;19933;-76
2022/10/10 06:43:03;;;;;;;;;;;8.20;99.90;;;;;;5013464;28;19932;-66
2022/10/10 06:45:34;;;;;;;;;;;8.20;99.90;;;;;;5012729;28;19936;-66
2022/10/10 06:48:01;;;;;;;;;;;8.20;99.90;;;;;;5013467;28;19925;-66
2022/10/10 06:50:27;;;;;;;;;;;8.30;99.90;;;;;;5014739;28;19926;-66
2022/10/10 06:52:54;;;;;;;;;;;8.40;99.90;;;;;;5015495;28;19944;-67
2022/10/10 06:55:21;;;;;;;;;;;8.50;99.90;;;;;;5013658;28;19925;-66
2022/10/10 06:57:48;;;;;;;;;;;8.60;99.90;;;;;;5017350;28;19926;-69
2022/10/10 07:00:15;;;;;;;;;;;8.70;99.90;;;;;;5010739;28;19926;-69
2022/10/10 07:02:42;;;;;;;;;;;8.70;99.90;;;;;;5017071;28;20037;-66
2022/10/10 07:05:10;;;;;;;;;;;8.90;99.90;;;;;;5012503;28;19929;-66
2022/10/10 07:07:38;;;;;;;;;;;9.00;99.90;;;;;;5013501;28;19933;-66
2022/10/10 07:10:05;;;;;;;;;;;9.20;99.90;;;;;;5009444;28;20455;-66
2022/10/10 07:12:32;;;;;;;;;;;9.40;99.90;;;;;;5014734;28;19925;-67
2022/10/10 07:15:09;;;;;;;;;;;9.60;99.90;;;;;;5015395;28;19929;-66
2022/10/10 07:17:36;;;;;;;;;;;9.90;99.90;;;;;;5015415;28;19929;-66
2022/10/10 07:20:03;;;;;;;;;;;10.00;99.90;;;;;;5015000;28;20442;-67
2022/10/10 07:22:30;;;;;;;;;;;10.20;99.90;;;;;;5017399;28;19925;-69
2022/10/10 07:24:57;;;;;;;;;;;10.20;99.90;;;;;;5010973;28;20021;-67
2022/10/10 07:27:23;;;;;;;;;;;10.30;99.90;;;;;;5012318;28;20474;-67
2022/10/10 07:29:50;;;;;;;;;;;10.40;99.90;;;;;;5012651;28;19932;-66
2022/10/10 07:32:17;;;;;;;;;;;10.50;99.90;;;;;;5017214;28;20012;-66
2022/10/10 07:34:44;;;;;;;;;;;10.60;99.90;;;;;;5013376;28;19933;-66
2022/10/10 07:37:10;;;;;;;;;;;10.60;99.90;;;;;;5012415;28;20352;-66
2022/10/10 07:39:37;;;;;;;;;;;10.70;99.90;;;;;;5012570;28;20050;-67
2022/10/10 07:42:04;;;;;;;;;;;10.80;99.90;;;;;;5015400;28;19925;-67
2022/10/10 07:44:30;;;;;;;;;;;10.90;99.90;;;;;;5017473;28;19929;-68
2022/10/10 07:47:00;;;;;;;;;;;10.90;99.90;;;;;;5012136;28;19956;-66
2022/10/10 07:49:27;;;;;;;;;;;11.20;99.90;;;;;;5017995;28;19929;-68
2022/10/10 07:51:54;;;;;;;;;;;11.40;99.90;;;;;;5014469;28;19979;-67
2022/10/10 07:54:27;;;;;;;;;;;11.60;99.90;;;;;;5014395;28;19999;-68
2022/10/10 07:56:54;;;;;;;;;;;11.90;99.90;;;;;;5012837;28;19925;-67
2022/10/10 07:59:21;;;;;;;;;;;12.10;99.90;;;;;;5011069;28;19925;-67
2022/10/10 08:01:48;;;;;;;;;;;12.20;99.90;;;;;;5017876;28;19926;-66
2022/10/10 08:04:15;;;;;;;;;;;12.40;99.90;;;;;;5010117;28;19925;-67
2022/10/10 08:06:42;;;;;;;;;;;12.50;99.90;;;;;;5009117;28;19936;-68
2022/10/10 08:09:09;;;;;;;;;;;12.50;99.90;;;;;;5012841;28;20024;-67
2022/10/10 08:11:35;;;;;;;;;;;12.60;99.90;;;;;;5017891;28;20061;-66
2022/10/10 08:14:02;;;;;;;;;;;12.60;99.90;;;;;;5015539;28;20008;-68
2022/10/10 08:16:29;;;;;;;;;;;12.50;99.90;;;;;;5014278;28;19925;-67
2022/10/10 08:18:56;;;;;;;;;;;12.50;99.90;;;;;;5014094;28;20367;-69
2022/10/10 08:21:23;;;;;;;;;;;12.50;99.90;;;;;;5011337;28;19956;-69
2022/10/10 08:23:49;;;;;;;;;;;12.60;99.90;;;;;;5010629;28;19929;-66
2022/10/10 08:26:17;;;;;;;;;;;12.70;99.90;;;;;;5013085;28;19933;-66
2022/10/10 08:28:44;;;;;;;;;;;12.80;99.90;;;;;;5010892;28;20016;-68
2022/10/10 08:31:12;;;;;;;;;;;12.80;99.90;;;;;;5009710;28;19925;-67
2022/10/10 08:33:40;;;;;;;;;;;12.90;99.90;;;;;;5012493;28;19925;-66
2022/10/10 08:36:07;;;;;;;;;;;13.10;99.90;;;;;;5008810;28;20347;-66
2022/10/10 08:38:34;;;;;;;;;;;13.20;99.90;;;;;;5011639;28;20651;-67
2022/10/10 08:41:06;;;;;;;;;;;13.30;99.90;;;;;;5014100;28;19947;-66
2022/10/10 08:43:41;;;;;;;;;;;13.30;99.90;;;;;;5009133;28;20283;-71
2022/10/10 08:46:28;;;;;;;;;;;13.30;99.90;;;;;;5014789;28;20298;-67
2022/10/10 08:48:56;;;;;;;;;;;13.40;99.90;;;;;;5011512;28;19930;-67
2022/10/10 08:51:28;;;;;;;;;;;13.40;99.90;;;;;;5010782;28;19948;-67
2022/10/10 08:53:57;;;;;;;;;;;13.50;99.90;;;;;;5011162;28;19960;-66
2022/10/10 08:56:31;;;;;;;;;;;13.50;99.90;;;;;;5010661;28;19952;-68
2022/10/10 08:59:02;;;;;;;;;;;13.40;99.90;;;;;;5012636;28;19965;-67
2022/10/10 09:01:36;;;;;;;;;;;13.30;99.90;;;;;;5010954;28;20023;-67
2022/10/10 09:04:22;;;;;;;;;;;13.30;99.90;;;;;;5017118;28;20380;-67
2022/10/10 09:06:49;;;;;;;;;;;13.30;99.90;;;;;;5010687;28;19931;-67
2022/10/10 09:09:42;;;;;;;;;;;13.30;99.90;;;;;;5018811;28;19929;-67
2022/10/10 09:12:12;;;;;;;;;;;13.20;99.90;;;;;;5008163;28;19930;-66
2022/10/10 09:14:59;;;;;;;;;;;13.30;99.90;;;;;;5012198;28;19932;-68
2022/10/10 09:17:41;;;;;;;;;;;13.30;99.90;;;;;;5008334;28;19936;-67
2022/10/10 09:20:35;;;;;;;;;;;13.30;99.90;;;;;;5013334;28;19928;-70
2022/10/10 09:23:02;;;;;;;;;;;13.20;99.90;;;;;;5010868;28;19930;-67
2022/10/10 09:25:39;;;;;;;;;;;13.30;99.90;;;;;;5014647;28;19925;-67
2022/10/10 09:28:14;;;;;;;;;;;13.30;99.90;;;;;;5011272;28;19929;-67
2022/10/10 09:30:44;;;;;;;;;;;13.30;99.90;;;;;;5011790;28;19988;-67
2022/10/10 09:33:37;;;;;;;;;;;13.30;99.90;;;;;;5027677;28;19949;-67
2022/10/10 09:36:07;;;;;;;;;;;13.20;99.90;;;;;;5010358;28;20477;-71
2022/10/10 09:38:34;;;;;;;;;;;13.10;99.90;;;;;;5016567;28;20263;-66
2022/10/10 09:41:04;;;;;;;;;;;13.10;99.90;;;;;;5017856;28;20286;-67
2022/10/10 09:43:32;;;;;;;;;;;13.20;99.90;;;;;;5013702;28;20422;-73
2022/10/10 09:45:59;;;;;;;;;;;13.30;99.90;;;;;;5017902;28;19932;-66
2022/10/10 09:48:28;;;;;;;;;;;13.40;99.90;;;;;;5012530;28;20024;-68
2022/10/10 09:50:55;;;;;;;;;;;13.50;99.90;;;;;;5013891;28;19925;-67
2022/10/10 09:53:22;;;;;;;;;;;13.70;99.90;;;;;;5017078;28;19932;-68
2022/10/10 09:55:49;;;;;;;;;;;14.00;99.90;;;;;;5015660;28;20016;-68
2022/10/10 09:58:34;;;;;;;;;;;14.20;99.90;;;;;;5016854;28;20268;-67
2022/10/10 10:01:19;;;;;;;;;;;14.30;99.90;;;;;;5013532;28;19929;-66
2022/10/10 10:04:06;;;;;;;;;;;14.30;99.90;;;;;;5012753;28;20308;-67
2022/10/10 10:07:02;;;;;;;;;;;14.30;99.90;;;;;;5013420;28;19929;-69
2022/10/10 10:09:28;;;;;;;;;;;14.00;99.90;;;;;;5012439;28;20013;-69
2022/10/10 10:11:56;;;;;;;;;;;14.00;99.90;;;;;;5011297;28;19926;-67
2022/10/10 10:14:31;;;;;;;;;;;14.00;99.90;;;;;;5014463;28;19994;-67
2022/10/10 10:17:05;;;;;;;;;;;13.90;99.90;;;;;;5016137;28;20002;-68
2022/10/10 10:19:32;;;;;;;;;;;13.90;99.90;;;;;;5014203;28;19925;-67
2022/10/10 10:21:59;;;;;;;;;;;14.00;99.90;;;;;;5014875;28;20028;-67
2022/10/10 10:24:31;;;;;;;;;;;14.10;99.90;;;;;;5011948;28;20328;-69
2022/10/10 10:27:07;;;;;;;;;;;14.30;99.90;;;;;;5020480;28;19932;-67
2022/10/10 10:29:34;;;;;;;;;;;14.40;99.90;;;;;;5011968;28;20372;-67
2022/10/10 10:32:12;;;;;;;;;;;14.50;99.90;;;;;;5006116;28;19925;-66
2022/10/10 10:34:57;;;;;;;;;;;14.60;99.90;;;;;;5007542;28;19925;-66
2022/10/10 10:37:30;;;;;;;;;;;14.60;99.90;;;;;;5013239;28;20371;-67
2022/10/10 10:40:00;;;;;;;;;;;14.80;99.90;;;;;;5018928;28;19930;-68
2022/10/10 10:42:29;;;;;;;;;;;14.60;99.90;;;;;;5012211;28;19929;-68
2022/10/10 10:44:59;;;;;;;;;;;14.60;99.90;;;;;;5015586;28;19933;-67
2022/10/10 10:47:36;;;;;;;;;;;14.60;99.90;;;;;;5011746;28;19929;-70
2022/10/10 10:50:27;;;;;;;;;;;14.60;99.90;;;;;;5019931;28;20026;-69
2022/10/10 10:52:56;;;;;;;;;;;14.50;99.90;;;;;;5018039;28;20062;-69
2022/10/10 10:55:29;;;;;;;;;;;14.40;99.90;;;;;;5012390;28;19925;-68
2022/10/10 10:58:01;;;;;;;;;;;14.30;99.90;;;;;;5014578;28;20004;-67
2022/10/10 11:00:53;;;;;;;;;;;14.40;99.90;;;;;;5015384;28;19929;-67
2022/10/10 11:03:52;;;;;;;;;;;14.50;99.90;;;;;;5008010;28;19932;-73
2022/10/10 11:06:49;;;;;;;;;;;14.60;99.90;;;;;;5014717;28;19940;-66
2022/10/10 11:09:41;;;;;;;;;;;14.60;99.90;;;;;;5011997;28;19933;-67
2022/10/10 11:12:34;;;;;;;;;;;14.50;99.90;;;;;;5016725;28;19937;-66
2022/10/10 11:15:13;;;;;;;;;;;14.60;99.90;;;;;;5029866;28;19925;-66
2022/10/10 11:17:44;;;;;;;;;;;14.50;99.90;;;;;;5015002;28;19929;-67
2022/10/10 11:20:11;;;;;;;;;;;14.60;99.90;;;;;;5014420;28;19994;-69
2022/10/10 11:22:41;;;;;;;;;;;14.50;99.90;;;;;;5011842;28;19926;-67
2022/10/10 11:25:15;;;;;;;;;;;14.40;99.90;;;;;;5014286;28;19936;-67
2022/10/10 11:27:45;;;;;;;;;;;14.40;99.90;;;;;;5009052;28;20451;-67
2022/10/10 11:30:13;;;;;;;;;;;14.40;99.90;;;;;;5010299;28;19939;-68
2022/10/10 11:32:49;;;;;;;;;;;14.30;99.90;;;;;;5018477;28;19925;-68
2022/10/10 11:35:18;;;;;;;;;;;14.30;99.90;;;;;;5011631;28;19933;-67
2022/10/10 11:37:49;;;;;;;;;;;14.30;99.90;;;;;;5016673;28;19937;-67
2022/10/10 11:40:26;;;;;;;;;;;14.10;99.90;;;;;;5013591;28;19937;-68
2022/10/10 11:42:56;;;;;;;;;;;14.20;99.90;;;;;;5013747;28;20382;-67
2022/10/10 11:45:26;;;;;;;;;;;14.30;99.90;;;;;;5010711;28;20351;-70
2022/10/10 11:48:11;;;;;;;;;;;14.40;99.90;;;;;;5017641;28;19925;-66
2022/10/10 11:50:41;;;;;;;;;;;14.40;99.90;;;;;;5014033;28;19945;-71
2022/10/10 11:53:23;;;;;;;;;;;14.50;99.90;;;;;;5015302;28;19933;-68
2022/10/10 11:56:02;;;;;;;;;;;14.40;99.90;;;;;;5013547;28;19929;-68
2022/10/10 11:58:44;;;;;;;;;;;14.40;99.90;;;;;;5017732;28;19980;-68
2022/10/10 12:01:16;;;;;;;;;;;14.40;99.90;;;;;;5011399;28;20346;-70
2022/10/10 12:03:43;;;;;;;;;;;14.40;99.90;;;;;;5013108;28;19957;-67
2022/10/10 12:06:21;;;;;;;;;;;14.40;99.90;;;;;;5011116;28;19932;-68
2022/10/10 12:08:56;;;;;;;;;;;14.40;99.90;;;;;;5012577;28;19925;-67
2022/10/10 12:11:43;;;;;;;;;;;14.40;99.90;;;;;;5009012;28;19925;-67
2022/10/10 12:14:14;;;;;;;;;;;14.30;99.90;;;;;;5010970;28;19926;-67
2022/10/10 12:16:41;;;;;;;;;;;14.30;99.90;;;;;;5014294;28;19931;-68
2022/10/10 12:19:18;;;;;;;;;;;14.30;99.90;;;;;;5010217;28;19951;-67
2022/10/10 12:21:57;;;;;;;;;;;14.40;99.90;;;;;;5014723;28;20031;-70
2022/10/10 12:24:29;;;;;;;;;;;14.40;99.90;;;;;;5012164;28;20006;-68
2022/10/10 12:26:55;;;;;;;;;;;14.40;99.90;;;;;;5011249;28;19925;-67
2022/10/10 12:29:41;;;;;;;;;;;14.40;99.90;;;;;;5016129;28;19926;-67
2022/10/10 12:32:13;;;;;;;;;;;14.40;99.90;;;;;;5017967;28;19930;-67
2022/10/10 12:35:00;;;;;;;;;;;14.30;99.90;;;;;;5014369;28;20110;-69
2022/10/10 12:37:29;;;;;;;;;;;14.30;99.90;;;;;;5012758;28;19926;-67
2022/10/10 12:40:02;;;;;;;;;;;14.40;99.90;;;;;;5012782;28;19929;-69
2022/10/10 12:42:33;;;;;;;;;;;14.40;99.90;;;;;;5016051;28;19925;-70
2022/10/10 12:45:00;;;;;;;;;;;14.40;99.90;;;;;;5016523;28;19940;-66
2022/10/10 12:47:33;;;;;;;;;;;14.30;99.90;;;;;;5011228;28;19929;-68
2022/10/10 12:50:26;;;;;;;;;;;14.30;99.90;;;;;;5011398;28;19932;-68
2022/10/10 12:53:03;;;;;;;;;;;14.30;99.90;;;;;;5015288;28;20033;-69
2022/10/10 12:55:42;;;;;;;;;;;14.30;99.90;;;;;;5012666;28;20024;-66
2022/10/10 12:58:15;;;;;;;;;;;14.40;99.90;;;;;;5009829;28;19933;-66
2022/10/10 13:00:53;;;;;;;;;;;14.40;99.90;;;;;;5011396;28;19925;-67
2022/10/10 13:03:23;;;;;;;;;;;14.40;99.90;;;;;;5012391;28;19925;-68
2022/10/10 13:05:51;;;;;;;;;;;14.30;99.90;;;;;;5015780;28;20608;-68
2022/10/10 13:08:19;;;;;;;;;;;14.40;99.90;;;;;;5017545;28;19928;-69
2022/10/10 13:11:04;;;;;;;;;;;14.40;99.90;;;;;;5010298;28;19987;-67
2022/10/10 13:13:31;;;;;;;;;;;14.50;99.90;;;;;;5013153;28;20451;-67
2022/10/10 13:16:05;;;;;;;;;;;14.50;99.90;;;;;;5015908;28;20294;-66
2022/10/10 13:18:32;;;;;;;;;;;14.60;99.90;;;;;;5017727;28;19932;-68
2022/10/10 13:21:00;;;;;;;;;;;14.50;99.90;;;;;;5013472;28;20290;-69
2022/10/10 13:23:28;;;;;;;;;;;14.60;99.90;;;;;;5014221;28;19984;-69
2022/10/10 13:25:54;;;;;;;;;;;14.60;99.90;;;;;;5017716;28;20021;-67
2022/10/10 13:28:21;;;;;;;;;;;14.60;99.90;;;;;;5017318;28;20024;-67
2022/10/10 13:30:49;;;;;;;;;;;14.50;99.90;;;;;;5015650;28;19930;-66
2022/10/10 13:33:17;;;;;;;;;;;14.50;99.90;;;;;;5013541;28;19960;-66
2022/10/10 13:35:45;;;;;;;;;;;14.60;99.90;;;;;;5017625;28;19929;-67
2022/10/10 13:38:13;;;;;;;;;;;14.60;99.90;;;;;;5015428;28;19960;-67
2022/10/10 13:40:41;;;;;;;;;;;14.50;99.90;;;;;;5015730;28;19929;-68
2022/10/10 13:43:16;;;;;;;;;;;14.40;99.90;;;;;;5018453;28;20302;-72
2022/10/10 13:45:47;;;;;;;;;;;14.50;99.90;;;;;;5012993;28;19925;-68
2022/10/10 13:48:24;;;;;;;;;;;14.50;99.90;;;;;;5012797;28;19925;-67
2022/10/10 13:50:55;;;;;;;;;;;14.50;99.90;;;;;;5019286;28;19999;-67
2022/10/10 13:53:24;;;;;;;;;;;14.50;99.90;;;;;;5017033;28;20450;-67
2022/10/10 13:56:09;;;;;;;;;;;14.50;99.90;;;;;;5013000;28;19926;-67
2022/10/10 13:58:53;;;;;;;;;;;14.40;99.90;;;;;;5017269;28;20025;-66
2022/10/10 14:01:30;;;;;;;;;;;14.30;99.90;;;;;;5012115;28;19925;-68
2022/10/10 14:04:17;;;;;;;;;;;14.20;99.90;;;;;;5015383;28;19988;-68
2022/10/10 14:07:03;;;;;;;;;;;14.30;99.90;;;;;;5012375;28;19936;-70
2022/10/10 14:09:34;;;;;;;;;;;14.30;99.90;;;;;;5007499;28;19932;-68
2022/10/10 14:12:02;;;;;;;;;;;14.40;99.90;;;;;;5016093;28;20032;-68
2022/10/10 14:14:34;;;;;;;;;;;14.40;99.90;;;;;;5016912;28;19929;-68
2022/10/10 14:17:02;;;;;;;;;;;14.30;99.90;;;;;;5014814;28;19925;-67
2022/10/10 14:19:29;;;;;;;;;;;14.20;99.90;;;;;;5012294;28;19925;-68
2022/10/10 14:21:56;;;;;;;;;;;14.30;99.90;;;;;;5014483;28;19926;-66
2022/10/10 14:24:24;;;;;;;;;;;14.10;99.90;;;;;;5015362;28;19949;-67
2022/10/10 14:26:51;;;;;;;;;;;13.90;99.90;;;;;;5010362;28;20446;-67
2022/10/10 14:29:18;;;;;;;;;;;13.70;99.90;;;;;;5014308;28;20417;-67
2022/10/10 14:31:45;;;;;;;;;;;13.60;99.90;;;;;;5017743;28;20256;-67
2022/10/10 14:34:12;;;;;;;;;;;13.60;99.90;;;;;;5015665;28;19929;-68
2022/10/10 14:36:46;;;;;;;;;;;13.60;99.90;;;;;;5015220;28;20539;-66
2022/10/10 14:39:17;;;;;;;;;;;13.70;99.90;;;;;;5018961;28;19926;-69
2022/10/10 14:41:44;;;;;;;;;;;13.80;99.90;;;;;;5016116;28;19925;-68
2022/10/10 14:44:11;;;;;;;;;;;13.80;99.90;;;;;;5014062;28;19925;-68